Terminal Aerodrome Forecast
Issued by NWS

Home | Current Version | Previous Version | Text Only | Print | Product List | Glossary On
Versions: 1 2 3 4 5 6 7 8 9 10 11 12 13 14 15 16 17
069
FTAK31 PAJN 271736
TAFAPG
TAF
PAPG 271736Z 2718/2818 VRB04KT P6SM -RA SCT015 OVC035
      TEMPO 2718/2722 5SM -RA BR BKN025
     FM272200 10006KT 5SM -RA BR BKN025 OVC035
     FM280400 VRB04KT 5SM -SHRA BR BKN015 OVC025
     FM281000 VRB03KT P6SM BCFG SCT005 BKN045
      AMD LTD TO CLD VIS AND WIND 2806/2815=

USA.gov is the U.S. government's official web portal to all federal, state and local government web resources and services.